createdAt,value
2019-04-22T00:00:30.321Z,992.15
2019-04-22T00:01:28.603Z,992.09
2019-04-22T00:02:24.619Z,992.13
2019-04-22T00:03:36.014Z,992.12
2019-04-22T00:04:40.220Z,992.07
2019-04-22T00:05:41.469Z,992.05
2019-04-22T00:06:44.298Z,992.09
2019-04-22T00:07:53.309Z,992.11
2019-04-22T00:08:54.240Z,992.04
2019-04-22T00:09:53.025Z,992.07
2019-04-22T00:10:54.198Z,992.05
2019-04-22T00:11:52.916Z,992.04
2019-04-22T00:13:55.155Z,991.99
2019-04-22T00:14:48.416Z,991.99
2019-04-22T00:15:41.773Z,991.95
2019-04-22T00:16:51.949Z,991.99
2019-04-22T00:17:54.452Z,991.93
2019-04-22T00:19:05.439Z,991.92
2019-04-22T00:19:50.541Z,991.92
2019-04-22T00:20:50.462Z,991.88
2019-04-22T00:21:55.206Z,991.94
2019-04-22T00:22:46.480Z,991.91
2019-04-22T00:23:45.303Z,991.88
2019-04-22T00:24:55.886Z,991.87
2019-04-22T00:26:04.059Z,991.88
2019-04-22T00:26:51.294Z,991.82
2019-04-22T00:28:02.397Z,991.88
2019-04-22T00:28:53.268Z,991.86
2019-04-22T00:29:59.357Z,991.82
2019-04-22T00:30:46.919Z,991.82
2019-04-22T00:31:45.863Z,991.85
2019-04-22T00:32:41.754Z,991.83
2019-04-22T00:33:45.320Z,991.84
2019-04-22T00:34:49.601Z,991.78
2019-04-22T00:35:49.459Z,991.79
2019-04-22T00:36:52.543Z,991.72
2019-04-22T00:37:54.062Z,991.71
2019-04-22T00:38:54.529Z,991.71
2019-04-22T00:39:46.590Z,991.72
2019-04-22T00:40:50.958Z,991.74
2019-04-22T00:41:50.780Z,991.71
2019-04-22T00:42:47.591Z,991.66
2019-04-22T00:43:52.654Z,991.69
2019-04-22T00:44:51.818Z,991.69
2019-04-22T00:46:52.304Z,991.70
2019-04-22T00:47:43.605Z,991.72
2019-04-22T00:49:05.830Z,991.70
2019-04-22T00:51:00.164Z,991.77
2019-04-22T00:51:52.698Z,991.73
2019-04-22T00:52:50.856Z,991.71
2019-04-22T00:53:51.250Z,991.69
2019-04-22T00:54:53.202Z,991.70
2019-04-22T00:55:47.498Z,991.77
2019-04-22T00:56:47.485Z,991.69
2019-04-22T00:57:46.267Z,991.73
2019-04-22T00:59:01.713Z,991.64
2019-04-22T00:59:54.971Z,991.63
2019-04-22T01:00:54.590Z,991.66
2019-04-22T01:01:46.727Z,991.69
2019-04-22T01:02:48.480Z,991.66
2019-04-22T01:04:54.928Z,991.60
2019-04-22T01:05:46.863Z,991.59
2019-04-22T01:06:49.859Z,991.56
2019-04-22T01:07:49.556Z,991.61
2019-04-22T01:08:53.061Z,991.58
2019-04-22T01:09:53.647Z,991.58
2019-04-22T01:10:52.946Z,991.46
2019-04-22T01:11:48.554Z,991.52
2019-04-22T01:12:44.006Z,991.46
2019-04-22T01:13:44.336Z,991.51
2019-04-22T01:14:47.504Z,991.47
2019-04-22T01:15:47.017Z,991.47
2019-04-22T01:16:50.938Z,991.46
2019-04-22T01:17:56.230Z,991.45
2019-04-22T01:18:48.762Z,991.41
2019-04-22T01:19:52.320Z,991.43
2019-04-22T01:21:06.951Z,991.42
2019-04-22T01:21:44.390Z,991.39
2019-04-22T01:22:46.057Z,991.37
2019-04-22T01:23:41.066Z,991.42
2019-04-22T01:24:48.629Z,991.40
2019-04-22T01:25:42.135Z,991.39
2019-04-22T01:26:38.632Z,991.35
2019-04-22T01:27:43.398Z,991.39
2019-04-22T01:28:34.187Z,991.39
2019-04-22T01:29:39.881Z,991.33
2019-04-22T01:30:32.799Z,991.35
2019-04-22T01:31:27.499Z,991.34
2019-04-22T01:32:30.441Z,991.31
2019-04-22T01:33:32.478Z,991.27
2019-04-22T01:34:36.182Z,991.32
2019-04-22T01:35:34.585Z,991.25
2019-04-22T01:36:43.070Z,991.26
2019-04-22T01:37:41.656Z,991.24
2019-04-22T01:38:48.271Z,991.25
2019-04-22T01:39:50.330Z,991.26
2019-04-22T01:40:57.885Z,991.22
2019-04-22T01:41:56.702Z,991.24
2019-04-22T01:42:55.818Z,991.23
2019-04-22T01:44:04.209Z,991.18
2019-04-22T01:44:45.332Z,991.26
2019-04-22T01:45:49.295Z,991.24
2019-04-22T01:46:50.853Z,991.24
2019-04-22T01:47:49.038Z,991.19
2019-04-22T01:48:47.694Z,991.18
2019-04-22T01:49:46.113Z,991.21
2019-04-22T01:50:43.167Z,991.19
2019-04-22T01:52:52.051Z,991.18
2019-04-22T01:53:54.771Z,991.16
2019-04-22T01:54:48.164Z,991.17
2019-04-22T01:55:50.043Z,991.17
2019-04-22T01:56:41.119Z,991.12
2019-04-22T01:57:47.723Z,991.11
2019-04-22T01:58:38.092Z,991.11
2019-04-22T01:59:43.045Z,991.14
2019-04-22T02:00:53.758Z,991.12
2019-04-22T02:01:52.880Z,991.06
2019-04-22T02:02:50.838Z,991.06
2019-04-22T02:05:04.943Z,991.04
2019-04-22T02:05:48.470Z,991.03
2019-04-22T02:06:53.797Z,991.04
2019-04-22T02:07:50.196Z,991.03
2019-04-22T02:09:53.687Z,991.00
2019-04-22T02:10:54.580Z,991.02
2019-04-22T02:12:45.903Z,990.97
2019-04-22T02:13:52.383Z,991.05
2019-04-22T02:14:52.281Z,991.06
2019-04-22T02:15:52.497Z,991.03
2019-04-22T02:16:50.050Z,990.99
2019-04-22T02:17:57.946Z,990.98
2019-04-22T02:18:52.441Z,990.94
2019-04-22T02:19:53.124Z,990.97
2019-04-22T02:20:48.843Z,990.95
2019-04-22T02:21:51.175Z,990.97
2019-04-22T02:23:08.031Z,990.95
2019-04-22T02:25:51.634Z,990.93
2019-04-22T02:27:01.624Z,990.95
2019-04-22T02:28:03.312Z,990.92
2019-04-22T02:29:03.627Z,990.87
2019-04-22T02:29:47.647Z,990.93
2019-04-22T02:31:16.155Z,990.91
2019-04-22T02:32:19.588Z,990.89
2019-04-22T02:33:11.539Z,990.93
2019-04-22T02:34:11.382Z,990.95
2019-04-22T02:35:01.170Z,990.93
2019-04-22T02:36:09.434Z,990.91
2019-04-22T02:36:50.126Z,990.94
2019-04-22T02:37:48.128Z,990.87
2019-04-22T02:39:54.957Z,990.89
2019-04-22T02:41:13.534Z,990.83
2019-04-22T02:41:50.857Z,990.83
2019-04-22T02:42:52.258Z,990.81
2019-04-22T02:44:53.117Z,990.77
2019-04-22T02:46:23.324Z,990.73
2019-04-22T02:47:04.412Z,990.77
2019-04-22T02:47:50.591Z,990.78
2019-04-22T02:49:53.462Z,990.77
2019-04-22T02:50:54.195Z,990.75
2019-04-22T02:51:43.513Z,990.72
2019-04-22T02:53:26.832Z,990.77
2019-04-22T02:54:54.772Z,990.71
2019-04-22T02:56:05.696Z,990.66
2019-04-22T02:56:58.871Z,990.69
2019-04-22T02:57:49.154Z,990.67
2019-04-22T02:59:56.671Z,990.62
2019-04-22T03:01:01.409Z,990.67
2019-04-22T03:02:03.274Z,990.63
2019-04-22T03:03:09.082Z,990.60
2019-04-22T03:04:01.222Z,990.57
2019-04-22T03:04:53.434Z,990.61
2019-04-22T03:06:15.393Z,990.59
2019-04-22T03:06:43.494Z,990.52
2019-04-22T03:08:02.429Z,990.58
2019-04-22T03:09:01.298Z,990.55
2019-04-22T03:09:55.096Z,990.56
2019-04-22T03:12:04.565Z,990.52
2019-04-22T03:12:52.169Z,990.54
2019-04-22T03:13:55.945Z,990.54
2019-04-22T03:14:48.592Z,990.46
2019-04-22T03:16:03.284Z,990.49
2019-04-22T03:17:57.937Z,990.48
2019-04-22T03:21:00.103Z,990.45
2019-04-22T03:21:54.614Z,990.43
2019-04-22T03:22:55.085Z,990.43
2019-04-22T03:25:11.647Z,990.38
2019-04-22T03:27:46.400Z,990.41
2019-04-22T03:30:26.475Z,990.32
2019-04-22T03:34:17.026Z,990.33
2019-04-22T03:36:36.496Z,990.34
2019-04-22T03:37:53.059Z,990.35
2019-04-22T03:39:19.444Z,990.36
2019-04-22T03:40:07.349Z,990.32
2019-04-22T03:40:54.132Z,990.30
2019-04-22T03:42:59.685Z,990.30
2019-04-22T03:44:08.254Z,990.31
2019-04-22T03:45:00.698Z,990.29
2019-04-22T03:45:51.688Z,990.25
2019-04-22T03:47:01.922Z,990.26
2019-04-22T03:49:07.184Z,990.24
2019-04-22T03:50:11.203Z,990.26
2019-04-22T03:50:42.829Z,990.22
2019-04-22T03:52:10.743Z,990.24
2019-04-22T03:52:56.699Z,990.22
2019-04-22T03:54:02.784Z,990.21
2019-04-22T03:55:57.537Z,990.21
2019-04-22T03:58:58.707Z,990.14
2019-04-22T04:02:54.815Z,990.16
2019-04-22T04:04:01.186Z,990.12
2019-04-22T04:05:52.544Z,990.08
2019-04-22T04:07:55.182Z,990.09
2019-04-22T04:08:51.761Z,990.13
2019-04-22T04:10:55.259Z,990.12
2019-04-22T04:13:00.062Z,990.12
2019-04-22T04:14:00.847Z,990.06
2019-04-22T04:15:12.337Z,990.08
2019-04-22T04:15:53.547Z,990.04
2019-04-22T04:16:56.402Z,990.05
2019-04-22T04:17:54.017Z,990.08
2019-04-22T04:20:06.065Z,989.97
2019-04-22T04:21:05.054Z,989.98
2019-04-22T04:21:53.577Z,989.98
2019-04-22T04:23:00.531Z,989.96
2019-04-22T04:24:29.148Z,990.01
2019-04-22T04:25:51.987Z,989.98
2019-04-22T04:27:20.470Z,989.93
2019-04-22T04:29:21.376Z,989.93
2019-04-22T04:30:13.685Z,989.91
2019-04-22T04:31:22.411Z,989.96
2019-04-22T04:32:56.710Z,989.92
2019-04-22T04:34:00.368Z,989.93
2019-04-22T04:36:01.838Z,989.92
2019-04-22T04:37:25.202Z,989.84
2019-04-22T04:38:51.719Z,989.91
2019-04-22T04:40:49.298Z,989.82
2019-04-22T04:42:54.231Z,989.85
2019-04-22T04:44:11.178Z,989.86
2019-04-22T04:45:12.052Z,989.88
2019-04-22T04:47:01.079Z,989.83
2019-04-22T04:48:00.832Z,989.88
2019-04-22T04:49:00.486Z,989.87
2019-04-22T04:53:06.329Z,989.91
2019-04-22T04:54:01.196Z,989.95
2019-04-22T04:55:18.412Z,989.96
2019-04-22T04:55:59.801Z,989.93
2019-04-22T04:56:46.627Z,989.89
2019-04-22T05:00:30.633Z,989.92
2019-04-22T05:01:55.526Z,989.93
2019-04-22T05:02:54.653Z,989.96
2019-04-22T05:03:57.189Z,989.93
2019-04-22T05:05:54.763Z,989.95
2019-04-22T05:09:55.009Z,990.06
2019-04-22T05:11:05.880Z,990.16
2019-04-22T05:12:19.499Z,990.19
2019-04-22T05:13:57.843Z,990.25
2019-04-22T05:14:55.017Z,990.28
2019-04-22T05:16:03.154Z,990.29
2019-04-22T05:17:57.810Z,990.46
2019-04-22T05:18:52.775Z,990.47
2019-04-22T05:19:47.735Z,990.46
2019-04-22T05:21:07.372Z,990.46
2019-04-22T05:21:53.330Z,990.45
2019-04-22T05:22:44.235Z,990.43
2019-04-22T05:24:53.341Z,990.45
2019-04-22T05:25:41.142Z,990.38
2019-04-22T05:26:52.807Z,990.36
2019-04-22T05:27:45.380Z,990.33
2019-04-22T05:28:52.101Z,990.34
2019-04-22T05:30:18.648Z,990.33
2019-04-22T05:30:41.053Z,990.39
2019-04-22T05:31:51.428Z,990.36
2019-04-22T05:33:48.257Z,990.35
2019-04-22T05:34:48.739Z,990.42
2019-04-22T05:35:48.468Z,990.38
2019-04-22T05:36:47.760Z,990.44
2019-04-22T05:37:49.999Z,990.45
2019-04-22T05:38:49.405Z,990.38
2019-04-22T05:39:44.907Z,990.42
2019-04-22T05:40:48.010Z,990.49
2019-04-22T05:41:48.839Z,990.50
2019-04-22T05:42:42.593Z,990.50
2019-04-22T05:43:54.447Z,990.58
2019-04-22T05:44:49.779Z,990.60
2019-04-22T05:45:43.121Z,990.68
2019-04-22T05:46:49.837Z,990.68
2019-04-22T05:47:50.724Z,990.67
2019-04-22T05:48:51.545Z,990.72
2019-04-22T05:49:41.663Z,990.70
2019-04-22T05:50:45.245Z,990.70
2019-04-22T05:51:41.709Z,990.65
2019-04-22T05:52:43.261Z,990.66
2019-04-22T05:53:48.222Z,990.67
2019-04-22T05:54:53.212Z,990.47
2019-04-22T05:55:46.697Z,990.53
2019-04-22T05:56:46.586Z,990.43
2019-04-22T05:57:44.418Z,990.37
2019-04-22T05:58:52.777Z,990.21
2019-04-22T05:59:49.679Z,990.14
2019-04-22T06:01:11.890Z,990.09
2019-04-22T06:01:52.093Z,990.14
2019-04-22T06:03:52.822Z,990.41
2019-04-22T06:04:51.824Z,990.41
2019-04-22T06:05:47.915Z,990.40
2019-04-22T06:06:44.952Z,990.49
2019-04-22T06:07:45.699Z,990.57
2019-04-22T06:08:45.405Z,990.66
2019-04-22T06:09:38.811Z,990.68
2019-04-22T06:10:51.965Z,990.72
2019-04-22T06:11:36.102Z,990.74
2019-04-22T06:12:35.344Z,990.72
2019-04-22T06:13:41.790Z,990.73
2019-04-22T06:14:42.584Z,990.66
2019-04-22T06:15:39.080Z,990.65
2019-04-22T06:16:44.363Z,990.70
2019-04-22T06:17:49.288Z,990.71
2019-04-22T06:18:40.425Z,990.67
2019-04-22T06:19:44.556Z,990.66
2019-04-22T06:20:46.569Z,990.62
2019-04-22T06:21:46.294Z,990.63
2019-04-22T06:23:46.679Z,990.73
2019-04-22T06:24:41.989Z,990.75
2019-04-22T06:25:57.861Z,990.82
2019-04-22T06:26:54.016Z,990.83
2019-04-22T06:27:49.600Z,990.82
2019-04-22T06:28:51.129Z,990.73
2019-04-22T06:29:41.295Z,990.74
2019-04-22T06:30:53.908Z,990.77
2019-04-22T06:32:10.237Z,990.85
2019-04-22T06:32:53.763Z,990.77
2019-04-22T06:33:49.879Z,990.70
2019-04-22T06:34:42.232Z,990.81
2019-04-22T06:37:59.812Z,990.85
2019-04-22T06:39:00.238Z,990.83
2019-04-22T06:39:44.873Z,990.85
2019-04-22T06:40:46.573Z,990.82
2019-04-22T06:41:47.649Z,990.86
2019-04-22T06:42:56.578Z,990.96
2019-04-22T06:43:56.064Z,990.96
2019-04-22T06:44:50.027Z,990.86
2019-04-22T06:45:39.922Z,990.77
2019-04-22T06:46:50.625Z,990.76
2019-04-22T06:48:44.727Z,990.66
2019-04-22T06:49:42.387Z,990.78
2019-04-22T06:51:45.078Z,990.76
2019-04-22T06:52:49.960Z,990.66
2019-04-22T06:53:40.800Z,990.60
2019-04-22T06:54:51.625Z,990.63
2019-04-22T06:55:45.874Z,990.60
2019-04-22T06:56:46.531Z,990.70
2019-04-22T06:57:43.508Z,990.85
2019-04-22T06:58:47.765Z,990.88
2019-04-22T06:59:45.739Z,991.03
2019-04-22T07:00:42.776Z,991.04
2019-04-22T07:01:42.460Z,991.06
2019-04-22T07:02:59.046Z,991.11
2019-04-22T07:03:47.658Z,991.02
2019-04-22T07:04:43.005Z,991.06
2019-04-22T07:05:50.526Z,991.09
2019-04-22T07:06:47.905Z,991.03
2019-04-22T07:07:49.798Z,990.97
2019-04-22T07:09:50.965Z,990.94
2019-04-22T07:11:46.483Z,990.94
2019-04-22T07:12:47.209Z,990.96
2019-04-22T07:13:48.712Z,991.05
2019-04-22T07:14:42.098Z,991.15
2019-04-22T07:16:43.524Z,991.17
2019-04-22T07:17:50.769Z,991.23
2019-04-22T07:18:45.298Z,991.25
2019-04-22T07:19:45.100Z,991.19
2019-04-22T07:20:44.210Z,991.14
2019-04-22T07:21:46.266Z,991.12
2019-04-22T07:22:45.438Z,991.13
2019-04-22T07:23:54.064Z,991.09
2019-04-22T07:26:45.067Z,991.16
2019-04-22T07:27:45.892Z,991.15
2019-04-22T07:28:37.103Z,991.13
2019-04-22T07:29:46.868Z,991.15
2019-04-22T07:31:00.350Z,991.20
2019-04-22T07:31:42.787Z,991.12
2019-04-22T07:33:04.915Z,991.04
2019-04-22T07:33:48.859Z,990.96
2019-04-22T07:34:45.937Z,991.08
2019-04-22T07:38:00.619Z,991.10
2019-04-22T07:38:38.997Z,991.06
2019-04-22T07:39:50.060Z,991.10
2019-04-22T07:40:45.638Z,991.18
2019-04-22T07:41:49.104Z,991.13
2019-04-22T07:42:45.511Z,991.16
2019-04-22T07:44:01.376Z,991.18
2019-04-22T07:44:44.955Z,991.17
2019-04-22T07:45:44.376Z,991.13
2019-04-22T07:46:50.106Z,991.14
2019-04-22T07:47:49.891Z,991.23
2019-04-22T07:48:45.323Z,991.21
2019-04-22T07:49:48.978Z,991.14
2019-04-22T07:50:56.058Z,991.14
2019-04-22T07:51:46.613Z,991.20
2019-04-22T07:52:43.453Z,991.15
2019-04-22T07:53:45.617Z,991.11
2019-04-22T07:54:47.876Z,991.15
2019-04-22T07:55:46.800Z,991.14
2019-04-22T07:56:47.073Z,991.09
2019-04-22T07:57:50.733Z,991.08
2019-04-22T07:58:43.568Z,990.99
2019-04-22T07:59:58.037Z,991.05
2019-04-22T08:01:09.088Z,991.07
2019-04-22T08:01:44.053Z,990.97
2019-04-22T08:02:50.470Z,990.94
2019-04-22T08:03:51.688Z,990.91
2019-04-22T08:04:57.954Z,991.00
2019-04-22T08:05:52.141Z,990.91
2019-04-22T08:06:46.020Z,990.94
2019-04-22T08:07:45.437Z,990.95
2019-04-22T08:08:45.960Z,990.93
2019-04-22T08:09:57.996Z,990.92
2019-04-22T08:11:08.613Z,990.98
2019-04-22T08:12:47.282Z,990.87
2019-04-22T08:13:42.564Z,990.93
2019-04-22T08:14:45.953Z,990.86
2019-04-22T08:15:51.318Z,990.85
2019-04-22T08:16:46.047Z,990.90
2019-04-22T08:18:42.272Z,990.91
2019-04-22T08:19:42.008Z,990.88
2019-04-22T08:20:41.379Z,990.85
2019-04-22T08:21:46.078Z,990.82
2019-04-22T08:22:45.130Z,990.93
2019-04-22T08:23:43.248Z,990.94
2019-04-22T08:24:56.372Z,990.88
2019-04-22T08:25:42.920Z,990.87
2019-04-22T08:26:51.554Z,990.89
2019-04-22T08:27:48.900Z,990.92
2019-04-22T08:28:46.082Z,990.83
2019-04-22T08:29:53.058Z,990.91
2019-04-22T08:30:47.721Z,990.87
2019-04-22T08:31:49.274Z,990.87
2019-04-22T08:33:00.670Z,990.83
2019-04-22T08:33:40.570Z,990.88
2019-04-22T08:34:42.160Z,990.89
2019-04-22T08:36:02.092Z,990.85
2019-04-22T08:36:54.028Z,990.80
2019-04-22T08:37:53.850Z,990.82
2019-04-22T08:38:52.793Z,990.83
2019-04-22T08:39:40.896Z,990.81
2019-04-22T08:40:47.309Z,990.88
2019-04-22T08:41:51.469Z,990.87
2019-04-22T08:42:43.408Z,990.78
2019-04-22T08:43:56.213Z,990.79
2019-04-22T08:45:04.789Z,990.72
2019-04-22T08:45:56.950Z,990.75
2019-04-22T08:47:41.922Z,990.71
2019-04-22T08:48:45.950Z,990.76
2019-04-22T08:49:50.469Z,990.71
2019-04-22T08:50:44.634Z,990.69
2019-04-22T08:51:49.372Z,990.68
2019-04-22T08:52:44.705Z,990.68
2019-04-22T08:53:48.158Z,990.61
2019-04-22T08:54:46.125Z,990.64
2019-04-22T08:55:51.997Z,990.62
2019-04-22T08:56:56.831Z,990.64
2019-04-22T08:58:04.842Z,990.64
2019-04-22T08:58:45.193Z,990.61
2019-04-22T08:59:43.204Z,990.61
2019-04-22T09:00:52.853Z,990.63
2019-04-22T09:01:44.916Z,990.67
2019-04-22T09:02:46.767Z,990.59
2019-04-22T09:03:48.788Z,990.59
2019-04-22T09:04:45.069Z,990.53
2019-04-22T09:07:02.472Z,990.53
2019-04-22T09:07:47.101Z,990.52
2019-04-22T09:08:42.293Z,990.47
2019-04-22T09:09:44.431Z,990.49
2019-04-22T09:10:43.273Z,990.53
2019-04-22T09:11:51.693Z,990.49
2019-04-22T09:12:57.855Z,990.47
2019-04-22T09:13:43.608Z,990.42
2019-04-22T09:14:42.207Z,990.37
2019-04-22T09:15:45.171Z,990.35
2019-04-22T09:16:42.689Z,990.34
2019-04-22T09:17:51.416Z,990.43
2019-04-22T09:18:48.563Z,990.37
2019-04-22T09:19:40.597Z,990.26
2019-04-22T09:21:08.536Z,990.26
2019-04-22T09:21:45.631Z,990.30
2019-04-22T09:22:45.388Z,990.26
2019-04-22T09:23:48.530Z,990.26
2019-04-22T09:24:43.846Z,990.23
2019-04-22T09:25:41.430Z,990.23
2019-04-22T09:26:41.888Z,990.18
2019-04-22T09:27:43.802Z,990.20
2019-04-22T09:28:46.168Z,990.17
2019-04-22T09:30:52.407Z,990.15
2019-04-22T09:31:49.627Z,990.14
2019-04-22T09:32:44.725Z,990.11
2019-04-22T09:33:53.268Z,990.17
2019-04-22T09:34:47.057Z,990.08
2019-04-22T09:35:45.389Z,990.08
2019-04-22T09:36:41.952Z,990.11
2019-04-22T09:37:48.614Z,990.09
2019-04-22T09:38:41.119Z,990.00
2019-04-22T09:39:41.293Z,989.94
2019-04-22T09:40:39.029Z,990.03
2019-04-22T09:41:46.508Z,989.98
2019-04-22T09:42:45.462Z,990.09
2019-04-22T09:43:53.447Z,989.95
2019-04-22T09:44:55.589Z,989.89
2019-04-22T09:45:43.893Z,989.90
2019-04-22T09:46:44.049Z,989.83
2019-04-22T09:47:52.587Z,989.82
2019-04-22T09:48:44.100Z,989.78
2019-04-22T09:49:51.886Z,989.75
2019-04-22T09:50:43.409Z,989.70
2019-04-22T09:51:49.910Z,989.66
2019-04-22T09:52:45.077Z,989.76
2019-04-22T09:53:46.834Z,989.67
2019-04-22T09:54:53.254Z,989.74
2019-04-22T09:55:42.579Z,989.66
2019-04-22T09:56:43.933Z,989.59
2019-04-22T09:57:38.344Z,989.52
2019-04-22T09:58:44.730Z,989.47
2019-04-22T09:59:48.527Z,989.52
2019-04-22T10:00:42.989Z,989.61
2019-04-22T10:01:53.091Z,989.55
2019-04-22T10:02:47.599Z,989.52
2019-04-22T10:03:44.961Z,989.49
2019-04-22T10:04:46.886Z,989.51
2019-04-22T10:06:06.169Z,989.51
2019-04-22T10:06:36.658Z,989.43
2019-04-22T10:07:43.231Z,989.41
2019-04-22T10:08:59.337Z,989.39
2019-04-22T10:10:41.794Z,989.23
2019-04-22T10:12:43.125Z,989.32
2019-04-22T10:13:49.340Z,989.40
2019-04-22T10:14:45.388Z,989.34
2019-04-22T10:15:43.916Z,989.26
2019-04-22T10:16:46.442Z,989.29
2019-04-22T10:17:43.970Z,989.14
2019-04-22T10:18:45.640Z,989.16
2019-04-22T10:19:41.102Z,989.08
2019-04-22T10:20:47.696Z,989.12
2019-04-22T10:22:45.790Z,989.15
2019-04-22T10:23:44.991Z,989.13
2019-04-22T10:24:39.266Z,989.08
2019-04-22T10:25:46.028Z,988.99
2019-04-22T10:27:41.317Z,989.08
2019-04-22T10:28:44.534Z,989.05
2019-04-22T10:29:48.478Z,989.07
2019-04-22T10:31:46.106Z,989.06
2019-04-22T10:32:46.288Z,989.02
2019-04-22T10:33:37.963Z,989.04
2019-04-22T10:34:27.005Z,989.04
2019-04-22T10:35:19.925Z,989.12
2019-04-22T10:36:17.272Z,989.26
2019-04-22T10:37:18.965Z,989.06
2019-04-22T10:38:16.663Z,989.12
2019-04-22T10:39:16.263Z,988.97
2019-04-22T10:40:15.909Z,988.95
2019-04-22T10:41:16.578Z,988.94
2019-04-22T10:42:15.524Z,988.94
2019-04-22T10:43:16.951Z,988.92
2019-04-22T10:44:15.508Z,988.84
2019-04-22T10:45:16.507Z,988.88
2019-04-22T10:46:15.869Z,988.97
2019-04-22T10:47:15.942Z,988.81
2019-04-22T10:48:16.481Z,988.82
2019-04-22T10:49:16.012Z,988.94
2019-04-22T10:50:16.536Z,988.87
2019-04-22T10:51:16.823Z,988.76
2019-04-22T10:52:16.542Z,988.76
2019-04-22T10:53:15.535Z,988.65
2019-04-22T10:54:15.772Z,988.69
2019-04-22T10:55:15.417Z,988.70
2019-04-22T10:56:16.861Z,988.58
2019-04-22T10:57:15.949Z,988.61
2019-04-22T10:58:16.839Z,988.51
2019-04-22T10:59:16.427Z,988.45
2019-04-22T11:00:15.649Z,988.41
2019-04-22T11:01:15.864Z,988.39
2019-04-22T11:02:15.326Z,988.32
2019-04-22T11:03:16.170Z,988.29
2019-04-22T11:04:15.403Z,988.23
2019-04-22T11:05:16.673Z,988.26
2019-04-22T11:06:15.297Z,988.29
2019-04-22T11:07:16.871Z,988.35
2019-04-22T11:08:26.028Z,988.35
2019-04-22T11:09:16.418Z,988.37
2019-04-22T11:10:32.391Z,988.42
2019-04-22T11:11:30.066Z,988.43
2019-04-22T11:12:20.666Z,988.33
2019-04-22T11:13:17.841Z,988.27
2019-04-22T11:14:15.199Z,988.16
2019-04-22T11:15:15.934Z,988.13
2019-04-22T11:16:15.202Z,988.17
2019-04-22T11:17:15.660Z,988.18
2019-04-22T11:18:15.722Z,988.11
2019-04-22T11:19:15.155Z,988.11
2019-04-22T11:20:15.568Z,988.03
2019-04-22T11:21:15.743Z,988.01
2019-04-22T11:22:20.494Z,988.01
2019-04-22T11:23:16.475Z,988.12
2019-04-22T11:24:15.096Z,987.98
2019-04-22T11:25:16.070Z,987.94
2019-04-22T11:26:15.583Z,987.99
2019-04-22T11:27:15.089Z,987.92
2019-04-22T11:28:15.975Z,987.74
2019-04-22T11:29:15.066Z,987.30
2019-04-22T11:30:18.499Z,987.02
2019-04-22T11:31:16.567Z,986.97
2019-04-22T11:32:15.040Z,986.92
2019-04-22T11:33:16.260Z,986.83
2019-04-22T11:34:15.380Z,986.84
2019-04-22T11:35:16.157Z,986.90
2019-04-22T11:36:15.786Z,986.84
2019-04-22T11:37:16.480Z,986.80
2019-04-22T11:38:15.145Z,986.86
2019-04-22T11:39:16.817Z,986.87
2019-04-22T11:40:23.851Z,986.88
2019-04-22T11:41:16.847Z,986.79
2019-04-22T11:42:16.152Z,986.67
2019-04-22T11:43:16.326Z,986.66
2019-04-22T11:44:15.179Z,986.84
2019-04-22T11:45:15.265Z,986.77
2019-04-22T11:46:15.648Z,986.74
2019-04-22T11:47:15.245Z,986.63
2019-04-22T11:48:15.434Z,986.68
2019-04-22T11:49:16.106Z,986.63
2019-04-22T11:50:15.683Z,986.59
2019-04-22T11:51:15.963Z,986.58
2019-04-22T11:52:16.873Z,986.59
2019-04-22T11:53:14.810Z,986.58
2019-04-22T11:54:14.832Z,986.51
2019-04-22T11:55:15.078Z,986.48
2019-04-22T11:56:14.753Z,986.46
2019-04-22T11:57:15.199Z,986.53
2019-04-22T11:58:14.975Z,986.57
2019-04-22T11:59:15.180Z,986.49
2019-04-22T12:00:14.765Z,986.46
2019-04-22T12:01:15.016Z,986.44
2019-04-22T12:02:16.216Z,986.38
2019-04-22T12:03:14.836Z,986.28
2019-04-22T12:04:15.868Z,986.29
2019-04-22T12:05:15.914Z,986.36
2019-04-22T12:06:15.806Z,986.35
2019-04-22T12:07:15.053Z,986.34
2019-04-22T12:08:15.505Z,986.31
2019-04-22T12:09:15.441Z,986.30
2019-04-22T12:10:26.520Z,986.22
2019-04-22T12:11:16.641Z,986.37
2019-04-22T12:12:15.840Z,986.37
2019-04-22T12:13:15.811Z,986.26
2019-04-22T12:14:15.788Z,986.23
2019-04-22T12:15:15.103Z,986.25
2019-04-22T12:16:14.526Z,986.25
2019-04-22T12:17:15.888Z,986.15
2019-04-22T12:18:15.290Z,986.12
2019-04-22T12:19:15.686Z,986.14
2019-04-22T12:20:16.019Z,986.08
2019-04-22T12:21:15.306Z,986.06
2019-04-22T12:22:15.368Z,986.06
2019-04-22T12:23:14.814Z,986.03
2019-04-22T12:24:15.196Z,986.09
2019-04-22T12:25:22.361Z,986.03
2019-04-22T12:26:18.875Z,985.99
2019-04-22T12:27:17.357Z,985.99
2019-04-22T12:28:15.030Z,985.89
2019-04-22T12:29:15.346Z,985.96
2019-04-22T12:30:14.785Z,985.95
2019-04-22T12:31:15.512Z,985.86
2019-04-22T12:32:15.645Z,985.82
2019-04-22T12:33:14.951Z,985.88
2019-04-22T12:34:15.454Z,985.92
2019-04-22T12:35:15.603Z,985.81
2019-04-22T12:36:14.968Z,985.84
2019-04-22T12:37:22.302Z,985.87
2019-04-22T12:38:17.008Z,985.90
2019-04-22T12:39:15.586Z,985.78
2019-04-22T12:40:25.844Z,985.83
2019-04-22T12:41:16.031Z,985.78
2019-04-22T12:42:15.336Z,985.80
2019-04-22T12:43:16.135Z,985.73
2019-04-22T12:44:15.009Z,985.64
2019-04-22T12:45:14.191Z,985.63
2019-04-22T12:46:14.492Z,985.77
2019-04-22T12:47:14.935Z,985.63
2019-04-22T12:48:15.046Z,985.69
2019-04-22T12:49:14.304Z,985.74
2019-04-22T12:50:21.798Z,985.81
2019-04-22T12:51:15.429Z,985.57
2019-04-22T12:52:24.505Z,985.56
2019-04-22T12:53:19.833Z,985.55
2019-04-22T12:54:15.240Z,985.53
2019-04-22T12:55:14.290Z,985.49
2019-04-22T12:56:15.402Z,985.59
2019-04-22T12:57:14.743Z,985.56
2019-04-22T12:58:14.053Z,985.47
2019-04-22T12:59:14.102Z,985.43
2019-04-22T13:00:15.530Z,985.44
2019-04-22T13:01:15.128Z,985.38
2019-04-22T13:02:15.381Z,985.34
2019-04-22T13:03:14.014Z,985.37
2019-04-22T13:04:17.285Z,985.31
2019-04-22T13:05:16.249Z,985.25
2019-04-22T13:06:14.298Z,985.34
2019-04-22T13:07:13.949Z,985.32
2019-04-22T13:08:13.973Z,985.31
2019-04-22T13:09:14.841Z,985.29
2019-04-22T13:10:13.979Z,985.28
2019-04-22T13:11:18.012Z,985.32
2019-04-22T13:12:15.243Z,985.24
2019-04-22T13:13:15.328Z,985.28
2019-04-22T13:14:14.975Z,985.27
2019-04-22T13:15:14.163Z,985.42
2019-04-22T13:16:15.260Z,985.29
2019-04-22T13:17:15.373Z,985.26
2019-04-22T13:18:26.994Z,985.32
2019-04-22T13:19:17.110Z,985.39
2019-04-22T13:20:16.134Z,985.26
2019-04-22T13:21:14.953Z,985.24
2019-04-22T13:22:14.641Z,985.21
2019-04-22T13:23:13.912Z,985.18
2019-04-22T13:24:15.344Z,985.17
2019-04-22T13:25:13.732Z,985.15
2019-04-22T13:26:15.125Z,985.15
2019-04-22T13:27:15.008Z,985.08
2019-04-22T13:28:15.363Z,985.17
2019-04-22T13:29:15.051Z,984.98
2019-04-22T13:30:14.488Z,985.01
2019-04-22T13:31:13.986Z,984.99
2019-04-22T13:32:13.663Z,984.98
2019-04-22T13:33:14.826Z,985.02
2019-04-22T13:34:21.600Z,984.99
2019-04-22T13:35:15.333Z,984.96
2019-04-22T13:36:13.612Z,985.05
2019-04-22T13:37:14.828Z,985.05
2019-04-22T13:38:13.737Z,985.07
2019-04-22T13:39:13.571Z,985.10
2019-04-22T13:40:14.905Z,985.11
2019-04-22T13:41:26.136Z,985.10
2019-04-22T13:42:19.661Z,985.07
2019-04-22T13:43:14.534Z,985.03
2019-04-22T13:44:14.648Z,985.15
2019-04-22T13:45:13.848Z,985.03
2019-04-22T13:46:14.450Z,985.02
2019-04-22T13:47:32.611Z,984.93
2019-04-22T13:48:33.133Z,984.99
2019-04-22T13:51:45.167Z,984.93
2019-04-22T13:52:46.402Z,984.91
2019-04-22T13:55:45.094Z,984.88
2019-04-22T13:56:40.222Z,984.87
2019-04-22T13:57:32.570Z,984.91
2019-04-22T13:58:29.103Z,984.98